sensor_id;sensor_type;location;lat;lon;timestamp;temperature;humidity
49132;DHT22;35149;51.196;6.204;2022-10-12T00:02:24;9.00;57.80
49132;DHT22;35149;51.196;6.204;2022-10-12T00:04:52;9.00;57.90
49132;DHT22;35149;51.196;6.204;2022-10-12T00:07:19;9.00;57.90
49132;DHT22;35149;51.196;6.204;2022-10-12T00:09:47;9.00;58.00
49132;DHT22;35149;51.196;6.204;2022-10-12T00:12:19;9.00;58.00
49132;DHT22;35149;51.196;6.204;2022-10-12T00:14:47;9.00;57.90
49132;DHT22;35149;51.196;6.204;2022-10-12T00:17:15;9.00;57.90
49132;DHT22;35149;51.196;6.204;2022-10-12T00:19:42;9.00;57.90
49132;DHT22;35149;51.196;6.204;2022-10-12T00:22:09;9.00;58.00
49132;DHT22;35149;51.196;6.204;2022-10-12T00:24:46;8.90;57.90
49132;DHT22;35149;51.196;6.204;2022-10-12T00:27:13;8.90;58.20
49132;DHT22;35149;51.196;6.204;2022-10-12T00:29:41;8.90;57.90
49132;DHT22;35149;51.196;6.204;2022-10-12T00:32:12;8.90;58.00
49132;DHT22;35149;51.196;6.204;2022-10-12T00:34:41;8.90;58.00
49132;DHT22;35149;51.196;6.204;2022-10-12T00:37:08;8.90;58.10
49132;DHT22;35149;51.196;6.204;2022-10-12T00:39:47;8.80;58.10
49132;DHT22;35149;51.196;6.204;2022-10-12T00:42:13;8.90;58.10
49132;DHT22;35149;51.196;6.204;2022-10-12T00:44:45;8.80;58.20
49132;DHT22;35149;51.196;6.204;2022-10-12T00:47:27;8.80;58.30
49132;DHT22;35149;51.196;6.204;2022-10-12T00:53:07;8.80;58.60
49132;DHT22;35149;51.196;6.204;2022-10-12T00:55:43;8.80;59.30
49132;DHT22;35149;51.196;6.204;2022-10-12T00:58:14;8.80;58.60
49132;DHT22;35149;51.196;6.204;2022-10-12T01:00:42;8.80;58.40
49132;DHT22;35149;51.196;6.204;2022-10-12T01:03:11;8.80;58.50
49132;DHT22;35149;51.196;6.204;2022-10-12T01:05:39;8.80;58.60
49132;DHT22;35149;51.196;6.204;2022-10-12T01:08:06;8.80;58.60
49132;DHT22;35149;51.196;6.204;2022-10-12T01:10:34;8.80;58.70
49132;DHT22;35149;51.196;6.204;2022-10-12T01:13:01;8.80;58.60
49132;DHT22;35149;51.196;6.204;2022-10-12T01:15:33;8.80;58.70
49132;DHT22;35149;51.196;6.204;2022-10-12T01:18:27;8.80;58.90
49132;DHT22;35149;51.196;6.204;2022-10-12T01:21:10;8.80;59.40
49132;DHT22;35149;51.196;6.204;2022-10-12T01:24:25;8.70;58.80
49132;DHT22;35149;51.196;6.204;2022-10-12T01:27:02;8.70;59.20
49132;DHT22;35149;51.196;6.204;2022-10-12T01:35:27;8.80;59.70
49132;DHT22;35149;51.196;6.204;2022-10-12T01:38:31;8.80;59.10
49132;DHT22;35149;51.196;6.204;2022-10-12T01:41:09;8.80;59.80
49132;DHT22;35149;51.196;6.204;2022-10-12T01:43:42;8.80;59.30
49132;DHT22;35149;51.196;6.204;2022-10-12T01:48:42;8.70;59.20
49132;DHT22;35149;51.196;6.204;2022-10-12T01:51:14;8.70;59.00
49132;DHT22;35149;51.196;6.204;2022-10-12T01:56:57;8.70;59.50
49132;DHT22;35149;51.196;6.204;2022-10-12T02:10:34;8.60;58.80
49132;DHT22;35149;51.196;6.204;2022-10-12T02:13:05;8.60;59.10
49132;DHT22;35149;51.196;6.204;2022-10-12T02:15:36;8.60;59.00
49132;DHT22;35149;51.196;6.204;2022-10-12T02:18:06;8.60;59.00
49132;DHT22;35149;51.196;6.204;2022-10-12T02:20:40;8.60;59.00
49132;DHT22;35149;51.196;6.204;2022-10-12T02:23:09;8.50;59.00
49132;DHT22;35149;51.196;6.204;2022-10-12T02:25:37;8.50;59.10
49132;DHT22;35149;51.196;6.204;2022-10-12T02:28:14;8.50;59.10
49132;DHT22;35149;51.196;6.204;2022-10-12T02:30:56;8.50;59.60
49132;DHT22;35149;51.196;6.204;2022-10-12T02:33:40;8.50;59.50
49132;DHT22;35149;51.196;6.204;2022-10-12T02:36:15;8.50;59.30
49132;DHT22;35149;51.196;6.204;2022-10-12T02:39:07;8.40;59.20
49132;DHT22;35149;51.196;6.204;2022-10-12T02:41:41;8.40;59.80
49132;DHT22;35149;51.196;6.204;2022-10-12T02:44:14;8.40;59.30
49132;DHT22;35149;51.196;6.204;2022-10-12T02:46:46;8.40;59.30
49132;DHT22;35149;51.196;6.204;2022-10-12T02:49:16;8.40;59.30
49132;DHT22;35149;51.196;6.204;2022-10-12T02:51:51;8.40;59.40
49132;DHT22;35149;51.196;6.204;2022-10-12T02:54:21;8.40;59.30
49132;DHT22;35149;51.196;6.204;2022-10-12T02:57:00;8.30;59.30
49132;DHT22;35149;51.196;6.204;2022-10-12T02:59:27;8.30;59.50
49132;DHT22;35149;51.196;6.204;2022-10-12T03:01:54;8.30;59.30
49132;DHT22;35149;51.196;6.204;2022-10-12T03:04:25;8.30;59.30
49132;DHT22;35149;51.196;6.204;2022-10-12T03:06:52;8.30;59.40
49132;DHT22;35149;51.196;6.204;2022-10-12T03:09:21;8.30;59.20
49132;DHT22;35149;51.196;6.204;2022-10-12T03:11:48;8.20;59.30
49132;DHT22;35149;51.196;6.204;2022-10-12T03:14:20;8.20;59.20
49132;DHT22;35149;51.196;6.204;2022-10-12T03:16:48;8.20;59.40
49132;DHT22;35149;51.196;6.204;2022-10-12T03:19:14;8.20;59.30
49132;DHT22;35149;51.196;6.204;2022-10-12T03:21:41;8.20;59.40
49132;DHT22;35149;51.196;6.204;2022-10-12T03:24:14;8.10;59.40
49132;DHT22;35149;51.196;6.204;2022-10-12T03:26:43;8.20;59.40
49132;DHT22;35149;51.196;6.204;2022-10-12T03:29:16;8.10;59.30
49132;DHT22;35149;51.196;6.204;2022-10-12T03:31:43;8.10;59.30
49132;DHT22;35149;51.196;6.204;2022-10-12T03:34:10;8.10;59.40
49132;DHT22;35149;51.196;6.204;2022-10-12T03:36:39;8.10;59.50
49132;DHT22;35149;51.196;6.204;2022-10-12T03:39:15;8.10;59.60
49132;DHT22;35149;51.196;6.204;2022-10-12T03:41:42;8.10;59.60
49132;DHT22;35149;51.196;6.204;2022-10-12T03:44:08;8.00;59.70
49132;DHT22;35149;51.196;6.204;2022-10-12T03:46:37;8.00;59.70
49132;DHT22;35149;51.196;6.204;2022-10-12T03:49:06;8.00;59.80
49132;DHT22;35149;51.196;6.204;2022-10-12T03:51:33;8.00;59.80
49132;DHT22;35149;51.196;6.204;2022-10-12T03:54:05;8.00;59.80
49132;DHT22;35149;51.196;6.204;2022-10-12T03:56:34;8.00;59.80
49132;DHT22;35149;51.196;6.204;2022-10-12T03:59:08;8.00;59.80
49132;DHT22;35149;51.196;6.204;2022-10-12T04:01:35;8.00;59.90
49132;DHT22;35149;51.196;6.204;2022-10-12T04:04:04;8.00;59.90
49132;DHT22;35149;51.196;6.204;2022-10-12T04:06:31;8.00;60.00
49132;DHT22;35149;51.196;6.204;2022-10-12T04:08:57;8.00;60.10
49132;DHT22;35149;51.196;6.204;2022-10-12T04:11:24;8.00;60.10
49132;DHT22;35149;51.196;6.204;2022-10-12T04:13:51;8.00;60.80
49132;DHT22;35149;51.196;6.204;2022-10-12T04:16:17;8.00;60.20
49132;DHT22;35149;51.196;6.204;2022-10-12T04:18:44;8.00;60.20
49132;DHT22;35149;51.196;6.204;2022-10-12T04:21:15;8.00;60.20
49132;DHT22;35149;51.196;6.204;2022-10-12T04:23:42;7.90;60.30
49132;DHT22;35149;51.196;6.204;2022-10-12T04:26:09;7.90;60.10
49132;DHT22;35149;51.196;6.204;2022-10-12T04:28:35;7.90;60.10
49132;DHT22;35149;51.196;6.204;2022-10-12T04:31:02;7.90;60.30
49132;DHT22;35149;51.196;6.204;2022-10-12T04:33:29;7.90;60.10
49132;DHT22;35149;51.196;6.204;2022-10-12T04:35:55;7.90;60.10
49132;DHT22;35149;51.196;6.204;2022-10-12T04:38:22;7.80;60.00
49132;DHT22;35149;51.196;6.204;2022-10-12T04:40:49;7.80;60.00
49132;DHT22;35149;51.196;6.204;2022-10-12T04:43:16;7.80;60.10
49132;DHT22;35149;51.196;6.204;2022-10-12T04:45:43;7.80;60.20
49132;DHT22;35149;51.196;6.204;2022-10-12T04:48:09;7.80;60.20
49132;DHT22;35149;51.196;6.204;2022-10-12T04:50:36;7.80;60.20
49132;DHT22;35149;51.196;6.204;2022-10-12T04:53:03;7.70;60.10
49132;DHT22;35149;51.196;6.204;2022-10-12T04:55:29;7.70;60.20
49132;DHT22;35149;51.196;6.204;2022-10-12T04:57:56;7.70;60.20
49132;DHT22;35149;51.196;6.204;2022-10-12T05:00:23;7.70;60.10
49132;DHT22;35149;51.196;6.204;2022-10-12T05:02:49;7.60;60.00
49132;DHT22;35149;51.196;6.204;2022-10-12T05:05:16;7.60;60.80
49132;DHT22;35149;51.196;6.204;2022-10-12T05:07:42;7.60;60.10
49132;DHT22;35149;51.196;6.204;2022-10-12T05:10:09;7.60;60.10
49132;DHT22;35149;51.196;6.204;2022-10-12T05:12:36;7.60;60.20
49132;DHT22;35149;51.196;6.204;2022-10-12T05:15:03;7.60;60.20
49132;DHT22;35149;51.196;6.204;2022-10-12T05:17:30;7.60;60.20
49132;DHT22;35149;51.196;6.204;2022-10-12T05:19:57;7.50;60.10
49132;DHT22;35149;51.196;6.204;2022-10-12T05:22:24;7.50;60.10
49132;DHT22;35149;51.196;6.204;2022-10-12T05:24:50;7.50;60.10
49132;DHT22;35149;51.196;6.204;2022-10-12T05:27:19;7.50;60.00
49132;DHT22;35149;51.196;6.204;2022-10-12T05:29:46;7.50;60.10
49132;DHT22;35149;51.196;6.204;2022-10-12T05:32:13;7.40;60.00
49132;DHT22;35149;51.196;6.204;2022-10-12T05:34:40;7.40;60.10
49132;DHT22;35149;51.196;6.204;2022-10-12T05:37:07;7.40;60.10
49132;DHT22;35149;51.196;6.204;2022-10-12T05:39:34;7.40;60.20
49132;DHT22;35149;51.196;6.204;2022-10-12T05:42:03;7.40;60.20
49132;DHT22;35149;51.196;6.204;2022-10-12T05:44:29;7.30;60.20
49132;DHT22;35149;51.196;6.204;2022-10-12T05:46:56;7.30;60.20
49132;DHT22;35149;51.196;6.204;2022-10-12T05:49:23;7.30;60.20
49132;DHT22;35149;51.196;6.204;2022-10-12T05:51:49;7.30;60.30
49132;DHT22;35149;51.196;6.204;2022-10-12T05:54:18;7.30;60.40
49132;DHT22;35149;51.196;6.204;2022-10-12T05:56:47;7.30;60.40
49132;DHT22;35149;51.196;6.204;2022-10-12T05:59:14;7.30;60.40
49132;DHT22;35149;51.196;6.204;2022-10-12T06:01:40;7.30;60.40
49132;DHT22;35149;51.196;6.204;2022-10-12T06:04:07;7.30;60.50
49132;DHT22;35149;51.196;6.204;2022-10-12T06:06:34;7.20;60.50
49132;DHT22;35149;51.196;6.204;2022-10-12T06:09:01;7.20;60.60
49132;DHT22;35149;51.196;6.204;2022-10-12T06:11:27;7.20;60.60
49132;DHT22;35149;51.196;6.204;2022-10-12T06:13:59;7.20;60.70
49132;DHT22;35149;51.196;6.204;2022-10-12T06:16:26;7.20;60.70
49132;DHT22;35149;51.196;6.204;2022-10-12T06:18:52;7.20;60.70
49132;DHT22;35149;51.196;6.204;2022-10-12T06:21:19;7.20;60.80
49132;DHT22;35149;51.196;6.204;2022-10-12T06:24:01;7.20;60.80
49132;DHT22;35149;51.196;6.204;2022-10-12T06:26:28;7.20;60.90
49132;DHT22;35149;51.196;6.204;2022-10-12T06:28:55;7.20;61.00
49132;DHT22;35149;51.196;6.204;2022-10-12T06:31:21;7.20;61.10
49132;DHT22;35149;51.196;6.204;2022-10-12T06:33:48;7.20;61.20
49132;DHT22;35149;51.196;6.204;2022-10-12T06:36:16;7.30;61.40
49132;DHT22;35149;51.196;6.204;2022-10-12T06:38:43;7.30;61.40
49132;DHT22;35149;51.196;6.204;2022-10-12T06:41:09;7.30;61.60
49132;DHT22;35149;51.196;6.204;2022-10-12T06:43:38;7.30;61.60
49132;DHT22;35149;51.196;6.204;2022-10-12T06:46:05;7.30;61.70
49132;DHT22;35149;51.196;6.204;2022-10-12T06:48:31;7.40;61.80
49132;DHT22;35149;51.196;6.204;2022-10-12T06:50:58;7.40;61.90
49132;DHT22;35149;51.196;6.204;2022-10-12T06:53:25;7.40;62.00
49132;DHT22;35149;51.196;6.204;2022-10-12T06:55:54;7.50;62.10
49132;DHT22;35149;51.196;6.204;2022-10-12T06:58:20;7.50;62.30
49132;DHT22;35149;51.196;6.204;2022-10-12T07:00:47;7.60;62.50
49132;DHT22;35149;51.196;6.204;2022-10-12T07:03:14;7.60;62.70
49132;DHT22;35149;51.196;6.204;2022-10-12T07:05:42;7.60;62.80
49132;DHT22;35149;51.196;6.204;2022-10-12T07:08:08;7.70;63.00
49132;DHT22;35149;51.196;6.204;2022-10-12T07:10:35;7.80;63.30
49132;DHT22;35149;51.196;6.204;2022-10-12T07:13:02;7.90;63.30
49132;DHT22;35149;51.196;6.204;2022-10-12T07:15:28;7.90;63.50
49132;DHT22;35149;51.196;6.204;2022-10-12T07:17:57;8.00;63.60
49132;DHT22;35149;51.196;6.204;2022-10-12T07:20:24;8.10;63.90
49132;DHT22;35149;51.196;6.204;2022-10-12T07:22:51;8.20;64.10
49132;DHT22;35149;51.196;6.204;2022-10-12T07:25:18;8.30;64.40
49132;DHT22;35149;51.196;6.204;2022-10-12T07:27:48;8.40;64.60
49132;DHT22;35149;51.196;6.204;2022-10-12T07:30:15;8.50;65.10
49132;DHT22;35149;51.196;6.204;2022-10-12T07:32:42;8.60;65.10
49132;DHT22;35149;51.196;6.204;2022-10-12T07:35:09;8.80;65.20
49132;DHT22;35149;51.196;6.204;2022-10-12T07:37:36;8.80;65.20
49132;DHT22;35149;51.196;6.204;2022-10-12T07:40:03;9.00;65.40
49132;DHT22;35149;51.196;6.204;2022-10-12T07:42:33;9.10;65.50
49132;DHT22;35149;51.196;6.204;2022-10-12T07:44:59;9.20;65.60
49132;DHT22;35149;51.196;6.204;2022-10-12T07:47:26;9.30;65.60
49132;DHT22;35149;51.196;6.204;2022-10-12T07:49:52;9.40;65.60
49132;DHT22;35149;51.196;6.204;2022-10-12T07:52:19;9.50;65.60
49132;DHT22;35149;51.196;6.204;2022-10-12T07:54:46;9.60;65.70
49132;DHT22;35149;51.196;6.204;2022-10-12T07:57:13;9.70;65.60
49132;DHT22;35149;51.196;6.204;2022-10-12T07:59:42;9.90;65.80
49132;DHT22;35149;51.196;6.204;2022-10-12T08:02:10;10.00;65.90
49132;DHT22;35149;51.196;6.204;2022-10-12T08:04:37;10.10;66.00
49132;DHT22;35149;51.196;6.204;2022-10-12T08:07:04;10.20;65.90
49132;DHT22;35149;51.196;6.204;2022-10-12T08:09:30;10.20;65.80
49132;DHT22;35149;51.196;6.204;2022-10-12T08:11:57;10.40;66.00
49132;DHT22;35149;51.196;6.204;2022-10-12T08:14:24;10.50;66.00
49132;DHT22;35149;51.196;6.204;2022-10-12T08:16:50;10.60;66.10
49132;DHT22;35149;51.196;6.204;2022-10-12T08:19:17;10.70;66.20
49132;DHT22;35149;51.196;6.204;2022-10-12T08:21:44;10.80;66.30
49132;DHT22;35149;51.196;6.204;2022-10-12T08:24:11;10.80;66.30
49132;DHT22;35149;51.196;6.204;2022-10-12T08:26:38;10.90;66.30
49132;DHT22;35149;51.196;6.204;2022-10-12T08:29:05;11.00;66.20
49132;DHT22;35149;51.196;6.204;2022-10-12T08:31:34;11.00;66.20
49132;DHT22;35149;51.196;6.204;2022-10-12T08:34:02;11.10;66.00
49132;DHT22;35149;51.196;6.204;2022-10-12T08:36:29;11.10;66.10
49132;DHT22;35149;51.196;6.204;2022-10-12T08:38:56;11.10;66.10
49132;DHT22;35149;51.196;6.204;2022-10-12T08:41:43;11.10;65.90
49132;DHT22;35149;51.196;6.204;2022-10-12T08:47:14;11.20;66.80
49132;DHT22;35149;51.196;6.204;2022-10-12T08:49:44;11.20;66.40
49132;DHT22;35149;51.196;6.204;2022-10-12T08:52:27;11.20;66.10
49132;DHT22;35149;51.196;6.204;2022-10-12T08:57:43;11.20;66.70
49132;DHT22;35149;51.196;6.204;2022-10-12T09:00:16;11.20;66.40
49132;DHT22;35149;51.196;6.204;2022-10-12T09:02:55;11.20;66.50
49132;DHT22;35149;51.196;6.204;2022-10-12T09:05:36;11.20;66.60
49132;DHT22;35149;51.196;6.204;2022-10-12T09:08:16;11.20;67.40
49132;DHT22;35149;51.196;6.204;2022-10-12T09:10:48;11.30;67.10
49132;DHT22;35149;51.196;6.204;2022-10-12T09:16:26;11.30;68.00
49132;DHT22;35149;51.196;6.204;2022-10-12T09:19:58;11.40;68.40
49132;DHT22;35149;51.196;6.204;2022-10-12T09:22:00;11.40;68.30
49132;DHT22;35149;51.196;6.204;2022-10-12T09:24:33;11.50;67.30
49132;DHT22;35149;51.196;6.204;2022-10-12T09:27:10;11.50;67.60
49132;DHT22;35149;51.196;6.204;2022-10-12T09:29:39;11.50;67.60
49132;DHT22;35149;51.196;6.204;2022-10-12T09:34:55;11.70;67.80
49132;DHT22;35149;51.196;6.204;2022-10-12T09:37:27;11.70;67.10
49132;DHT22;35149;51.196;6.204;2022-10-12T09:39:56;11.80;67.40
49132;DHT22;35149;51.196;6.204;2022-10-12T09:42:23;11.80;67.20
49132;DHT22;35149;51.196;6.204;2022-10-12T09:45:13;11.90;67.30
49132;DHT22;35149;51.196;6.204;2022-10-12T09:48:09;11.90;68.30
49132;DHT22;35149;51.196;6.204;2022-10-12T09:50:48;12.00;68.00
49132;DHT22;35149;51.196;6.204;2022-10-12T09:56:04;12.10;67.30
49132;DHT22;35149;51.196;6.204;2022-10-12T09:58:59;12.20;68.00
49132;DHT22;35149;51.196;6.204;2022-10-12T10:01:25;12.20;67.20
49132;DHT22;35149;51.196;6.204;2022-10-12T10:06:42;12.40;67.90
49132;DHT22;35149;51.196;6.204;2022-10-12T10:11:56;12.50;67.60
49132;DHT22;35149;51.196;6.204;2022-10-12T10:14:23;12.60;67.00
49132;DHT22;35149;51.196;6.204;2022-10-12T10:16:52;12.60;66.70
49132;DHT22;35149;51.196;6.204;2022-10-12T10:19:21;12.60;66.70
49132;DHT22;35149;51.196;6.204;2022-10-12T10:21:51;12.70;66.80
49132;DHT22;35149;51.196;6.204;2022-10-12T10:24:26;12.80;66.50
49132;DHT22;35149;51.196;6.204;2022-10-12T10:27:01;12.90;66.40
49132;DHT22;35149;51.196;6.204;2022-10-12T10:29:33;12.90;66.20
49132;DHT22;35149;51.196;6.204;2022-10-12T10:34:40;13.10;65.90
49132;DHT22;35149;51.196;6.204;2022-10-12T10:37:17;13.20;65.70
49132;DHT22;35149;51.196;6.204;2022-10-12T10:39:49;13.20;65.70
49132;DHT22;35149;51.196;6.204;2022-10-12T10:42:19;13.30;64.90
49132;DHT22;35149;51.196;6.204;2022-10-12T10:44:54;13.40;64.90
49132;DHT22;35149;51.196;6.204;2022-10-12T10:47:22;13.50;64.40
49132;DHT22;35149;51.196;6.204;2022-10-12T10:49:53;13.50;64.10
49132;DHT22;35149;51.196;6.204;2022-10-12T10:54:48;13.80;63.50
49132;DHT22;35149;51.196;6.204;2022-10-12T10:57:15;13.80;63.20
49132;DHT22;35149;51.196;6.204;2022-10-12T10:59:47;13.90;62.70
49132;DHT22;35149;51.196;6.204;2022-10-12T11:02:23;14.00;62.50
49132;DHT22;35149;51.196;6.204;2022-10-12T11:05:14;14.10;62.20
49132;DHT22;35149;51.196;6.204;2022-10-12T11:07:47;14.20;62.50
49132;DHT22;35149;51.196;6.204;2022-10-12T11:10:40;14.30;62.50
49132;DHT22;35149;51.196;6.204;2022-10-12T11:13:21;14.40;62.50
49132;DHT22;35149;51.196;6.204;2022-10-12T11:18:46;14.50;61.30
49132;DHT22;35149;51.196;6.204;2022-10-12T11:21:38;14.60;61.40
49132;DHT22;35149;51.196;6.204;2022-10-12T11:24:15;14.70;60.70
49132;DHT22;35149;51.196;6.204;2022-10-12T11:29:35;14.90;60.90
49132;DHT22;35149;51.196;6.204;2022-10-12T11:32:05;15.00;60.80
49132;DHT22;35149;51.196;6.204;2022-10-12T11:34:44;15.00;60.60
49132;DHT22;35149;51.196;6.204;2022-10-12T11:37:17;15.20;60.20
49132;DHT22;35149;51.196;6.204;2022-10-12T11:39:49;15.30;60.10
49132;DHT22;35149;51.196;6.204;2022-10-12T11:42:30;15.40;59.50
49132;DHT22;35149;51.196;6.204;2022-10-12T11:44:59;15.50;59.10
49132;DHT22;35149;51.196;6.204;2022-10-12T11:47:37;15.60;59.10
49132;DHT22;35149;51.196;6.204;2022-10-12T11:52:52;15.80;58.20
49132;DHT22;35149;51.196;6.204;2022-10-12T11:55:28;15.90;58.10
49132;DHT22;35149;51.196;6.204;2022-10-12T11:58:00;16.10;57.70
49132;DHT22;35149;51.196;6.204;2022-10-12T12:00:47;16.20;57.80
49132;DHT22;35149;51.196;6.204;2022-10-12T12:03:54;16.30;57.80
49132;DHT22;35149;51.196;6.204;2022-10-12T12:09:36;16.60;56.80
49132;DHT22;35149;51.196;6.204;2022-10-12T12:12:20;16.80;57.00
49132;DHT22;35149;51.196;6.204;2022-10-12T12:14:59;16.80;56.50
49132;DHT22;35149;51.196;6.204;2022-10-12T12:17:29;17.00;57.10
49132;DHT22;35149;51.196;6.204;2022-10-12T12:19:59;17.10;56.90
49132;DHT22;35149;51.196;6.204;2022-10-12T12:22:46;17.10;56.60
49132;DHT22;35149;51.196;6.204;2022-10-12T12:25:19;17.20;56.40
49132;DHT22;35149;51.196;6.204;2022-10-12T12:28:04;17.30;56.40
49132;DHT22;35149;51.196;6.204;2022-10-12T12:30:36;17.40;56.70
49132;DHT22;35149;51.196;6.204;2022-10-12T12:38:41;17.50;56.10
49132;DHT22;35149;51.196;6.204;2022-10-12T12:41:20;17.70;56.10
49132;DHT22;35149;51.196;6.204;2022-10-12T12:43:54;17.80;56.00
49132;DHT22;35149;51.196;6.204;2022-10-12T12:46:23;17.90;55.60
49132;DHT22;35149;51.196;6.204;2022-10-12T12:51:23;18.20;55.80
49132;DHT22;35149;51.196;6.204;2022-10-12T12:54:01;18.30;55.20
49132;DHT22;35149;51.196;6.204;2022-10-12T13:13:50;19.20;53.60
49132;DHT22;35149;51.196;6.204;2022-10-12T13:19:35;19.30;52.60
49132;DHT22;35149;51.196;6.204;2022-10-12T13:22:07;19.40;53.00
49132;DHT22;35149;51.196;6.204;2022-10-12T13:24:46;19.50;53.00
49132;DHT22;35149;51.196;6.204;2022-10-12T13:27:26;19.50;52.70
49132;DHT22;35149;51.196;6.204;2022-10-12T13:30:04;19.60;52.50
49132;DHT22;35149;51.196;6.204;2022-10-12T13:33:14;19.70;52.40
49132;DHT22;35149;51.196;6.204;2022-10-12T13:35:54;19.80;53.20
49132;DHT22;35149;51.196;6.204;2022-10-12T13:38:27;19.90;52.10
49132;DHT22;35149;51.196;6.204;2022-10-12T13:40:59;20.00;52.40
49132;DHT22;35149;51.196;6.204;2022-10-12T13:46:32;20.20;51.60
49132;DHT22;35149;51.196;6.204;2022-10-12T13:49:02;20.40;51.70
49132;DHT22;35149;51.196;6.204;2022-10-12T13:51:35;20.50;51.80
49132;DHT22;35149;51.196;6.204;2022-10-12T13:54:11;20.70;51.40
49132;DHT22;35149;51.196;6.204;2022-10-12T13:56:39;20.90;51.10
49132;DHT22;35149;51.196;6.204;2022-10-12T13:59:16;21.10;51.10
49132;DHT22;35149;51.196;6.204;2022-10-12T14:01:53;21.30;50.10
49132;DHT22;35149;51.196;6.204;2022-10-12T14:04:20;21.50;50.00
49132;DHT22;35149;51.196;6.204;2022-10-12T14:06:57;21.70;50.30
49132;DHT22;35149;51.196;6.204;2022-10-12T14:09:26;22.00;49.50
49132;DHT22;35149;51.196;6.204;2022-10-12T14:11:54;22.40;50.20
49132;DHT22;35149;51.196;6.204;2022-10-12T14:14:30;22.90;49.60
49132;DHT22;35149;51.196;6.204;2022-10-12T14:17:00;23.50;48.40
49132;DHT22;35149;51.196;6.204;2022-10-12T14:22:05;24.90;45.50
49132;DHT22;35149;51.196;6.204;2022-10-12T14:24:35;25.40;45.10
49132;DHT22;35149;51.196;6.204;2022-10-12T14:27:04;25.50;43.60
49132;DHT22;35149;51.196;6.204;2022-10-12T14:29:42;25.50;42.70
49132;DHT22;35149;51.196;6.204;2022-10-12T14:34:43;25.10;42.10
49132;DHT22;35149;51.196;6.204;2022-10-12T14:39:46;24.60;41.90
49132;DHT22;35149;51.196;6.204;2022-10-12T14:42:32;24.30;42.20
49132;DHT22;35149;51.196;6.204;2022-10-12T14:45:21;24.10;43.30
49132;DHT22;35149;51.196;6.204;2022-10-12T14:47:50;23.90;42.20
49132;DHT22;35149;51.196;6.204;2022-10-12T14:50:20;23.70;43.10
49132;DHT22;35149;51.196;6.204;2022-10-12T14:52:54;23.80;43.20
49132;DHT22;35149;51.196;6.204;2022-10-12T14:55:24;24.00;43.30
49132;DHT22;35149;51.196;6.204;2022-10-12T14:57:53;24.20;42.30
49132;DHT22;35149;51.196;6.204;2022-10-12T15:00:21;24.40;42.00
49132;DHT22;35149;51.196;6.204;2022-10-12T15:02:50;24.50;41.50
49132;DHT22;35149;51.196;6.204;2022-10-12T15:05:19;24.50;41.00
49132;DHT22;35149;51.196;6.204;2022-10-12T15:07:47;24.30;41.60
49132;DHT22;35149;51.196;6.204;2022-10-12T15:10:16;24.40;42.20
49132;DHT22;35149;51.196;6.204;2022-10-12T15:12:43;24.50;42.60
49132;DHT22;35149;51.196;6.204;2022-10-12T15:15:27;25.00;42.00
49132;DHT22;35149;51.196;6.204;2022-10-12T15:17:56;25.50;40.50
49132;DHT22;35149;51.196;6.204;2022-10-12T15:20:25;25.90;39.90
49132;DHT22;35149;51.196;6.204;2022-10-12T15:22:52;25.90;38.80
49132;DHT22;35149;51.196;6.204;2022-10-12T15:25:20;25.90;39.10
49132;DHT22;35149;51.196;6.204;2022-10-12T15:27:47;25.60;38.50
49132;DHT22;35149;51.196;6.204;2022-10-12T15:30:15;25.30;38.60
49132;DHT22;35149;51.196;6.204;2022-10-12T15:32:42;25.00;39.50
49132;DHT22;35149;51.196;6.204;2022-10-12T15:35:23;24.60;40.10
49132;DHT22;35149;51.196;6.204;2022-10-12T15:37:51;24.10;40.60
49132;DHT22;35149;51.196;6.204;2022-10-12T15:40:19;23.80;41.70
49132;DHT22;35149;51.196;6.204;2022-10-12T15:42:46;23.30;42.40
49132;DHT22;35149;51.196;6.204;2022-10-12T15:45:21;22.90;43.20
49132;DHT22;35149;51.196;6.204;2022-10-12T15:47:50;22.50;44.00
49132;DHT22;35149;51.196;6.204;2022-10-12T15:50:19;22.20;44.70
49132;DHT22;35149;51.196;6.204;2022-10-12T15:52:47;21.80;45.40
49132;DHT22;35149;51.196;6.204;2022-10-12T15:55:21;21.50;46.00
49132;DHT22;35149;51.196;6.204;2022-10-12T15:57:49;21.20;46.70
49132;DHT22;35149;51.196;6.204;2022-10-12T16:00:18;20.90;47.30
49132;DHT22;35149;51.196;6.204;2022-10-12T16:02:49;20.70;47.90
49132;DHT22;35149;51.196;6.204;2022-10-12T16:05:21;20.40;48.40
49132;DHT22;35149;51.196;6.204;2022-10-12T16:07:47;20.20;49.10
49132;DHT22;35149;51.196;6.204;2022-10-12T16:10:16;20.10;48.60
49132;DHT22;35149;51.196;6.204;2022-10-12T16:12:45;19.80;49.60
49132;DHT22;35149;51.196;6.204;2022-10-12T16:15:17;19.60;50.00
49132;DHT22;35149;51.196;6.204;2022-10-12T16:17:44;19.50;50.10
49132;DHT22;35149;51.196;6.204;2022-10-12T16:20:14;19.30;50.60
49132;DHT22;35149;51.196;6.204;2022-10-12T16:22:44;19.10;51.10
49132;DHT22;35149;51.196;6.204;2022-10-12T16:25:12;19.00;51.40
49132;DHT22;35149;51.196;6.204;2022-10-12T16:27:40;18.80;51.70
49132;DHT22;35149;51.196;6.204;2022-10-12T16:30:07;18.70;52.00
49132;DHT22;35149;51.196;6.204;2022-10-12T16:32:34;18.50;52.30
49132;DHT22;35149;51.196;6.204;2022-10-12T16:35:01;18.30;52.40
49132;DHT22;35149;51.196;6.204;2022-10-12T16:37:28;18.10;52.80
49132;DHT22;35149;51.196;6.204;2022-10-12T16:39:56;17.90;53.00
49132;DHT22;35149;51.196;6.204;2022-10-12T16:42:25;17.80;53.30
49132;DHT22;35149;51.196;6.204;2022-10-12T16:44:51;17.60;53.60
49132;DHT22;35149;51.196;6.204;2022-10-12T16:47:18;17.40;53.90
49132;DHT22;35149;51.196;6.204;2022-10-12T16:49:47;17.30;54.30
49132;DHT22;35149;51.196;6.204;2022-10-12T16:52:14;17.10;54.60
49132;DHT22;35149;51.196;6.204;2022-10-12T16:54:43;17.00;54.90
49132;DHT22;35149;51.196;6.204;2022-10-12T16:57:12;16.90;55.10
49132;DHT22;35149;51.196;6.204;2022-10-12T16:59:38;16.70;55.30
49132;DHT22;35149;51.196;6.204;2022-10-12T17:02:05;16.60;55.60
49132;DHT22;35149;51.196;6.204;2022-10-12T17:04:32;16.50;55.80
49132;DHT22;35149;51.196;6.204;2022-10-12T17:06:58;16.40;56.00
49132;DHT22;35149;51.196;6.204;2022-10-12T17:09:25;16.20;56.10
49132;DHT22;35149;51.196;6.204;2022-10-12T17:11:52;16.10;56.20
49132;DHT22;35149;51.196;6.204;2022-10-12T17:14:22;16.00;56.40
49132;DHT22;35149;51.196;6.204;2022-10-12T17:16:49;15.90;56.60
49132;DHT22;35149;51.196;6.204;2022-10-12T17:19:22;15.80;56.50
49132;DHT22;35149;51.196;6.204;2022-10-12T17:21:49;15.70;56.80
49132;DHT22;35149;51.196;6.204;2022-10-12T17:24:21;15.50;56.60
49132;DHT22;35149;51.196;6.204;2022-10-12T17:26:52;15.40;56.70
49132;DHT22;35149;51.196;6.204;2022-10-12T17:29:19;15.30;56.70
49132;DHT22;35149;51.196;6.204;2022-10-12T17:31:47;15.20;56.90
49132;DHT22;35149;51.196;6.204;2022-10-12T17:34:35;15.10;57.10
49132;DHT22;35149;51.196;6.204;2022-10-12T17:37:04;15.00;57.70
49132;DHT22;35149;51.196;6.204;2022-10-12T17:39:38;14.90;57.40
49132;DHT22;35149;51.196;6.204;2022-10-12T17:42:08;14.80;57.90
49132;DHT22;35149;51.196;6.204;2022-10-12T17:44:39;14.80;57.80